sensor_id;sensor_type;location;lat;lon;timestamp;temperature;humidity
7998;DHT22;4044;49.814;7.828;2023-03-14T00:00:51;10.50;99.90
7998;DHT22;4044;49.814;7.828;2023-03-14T00:03:16;10.50;99.90
7998;DHT22;4044;49.814;7.828;2023-03-14T00:05:42;10.50;99.90
7998;DHT22;4044;49.814;7.828;2023-03-14T00:08:07;10.50;99.90
7998;DHT22;4044;49.814;7.828;2023-03-14T00:10:36;10.50;99.90
7998;DHT22;4044;49.814;7.828;2023-03-14T00:13:01;10.50;99.90
7998;DHT22;4044;49.814;7.828;2023-03-14T00:15:27;10.60;99.90
7998;DHT22;4044;49.814;7.828;2023-03-14T00:17:52;10.40;99.90
7998;DHT22;4044;49.814;7.828;2023-03-14T00:20:18;10.30;99.90
7998;DHT22;4044;49.814;7.828;2023-03-14T00:22:43;10.30;99.90
7998;DHT22;4044;49.814;7.828;2023-03-14T00:25:11;10.20;99.90
7998;DHT22;4044;49.814;7.828;2023-03-14T00:27:37;10.30;99.90
7998;DHT22;4044;49.814;7.828;2023-03-14T00:30:03;10.20;99.90
7998;DHT22;4044;49.814;7.828;2023-03-14T00:32:29;10.20;99.90
7998;DHT22;4044;49.814;7.828;2023-03-14T00:34:54;10.10;99.90
7998;DHT22;4044;49.814;7.828;2023-03-14T00:37:20;10.10;99.90
7998;DHT22;4044;49.814;7.828;2023-03-14T00:39:45;10.10;99.90
7998;DHT22;4044;49.814;7.828;2023-03-14T00:42:11;10.00;99.90
7998;DHT22;4044;49.814;7.828;2023-03-14T00:44:37;10.00;99.90
7998;DHT22;4044;49.814;7.828;2023-03-14T00:47:02;10.00;99.90
7998;DHT22;4044;49.814;7.828;2023-03-14T00:49:28;10.10;99.90
7998;DHT22;4044;49.814;7.828;2023-03-14T00:51:53;10.20;99.90
7998;DHT22;4044;49.814;7.828;2023-03-14T00:54:19;10.30;99.90
7998;DHT22;4044;49.814;7.828;2023-03-14T00:56:45;10.20;99.90
7998;DHT22;4044;49.814;7.828;2023-03-14T00:59:11;10.10;99.90
7998;DHT22;4044;49.814;7.828;2023-03-14T01:01:36;10.00;99.90
7998;DHT22;4044;49.814;7.828;2023-03-14T01:04:02;10.00;99.90
7998;DHT22;4044;49.814;7.828;2023-03-14T01:06:29;9.90;99.90
7998;DHT22;4044;49.814;7.828;2023-03-14T01:08:56;9.90;99.90
7998;DHT22;4044;49.814;7.828;2023-03-14T01:11:23;9.80;99.90
7998;DHT22;4044;49.814;7.828;2023-03-14T01:13:49;9.90;99.90
7998;DHT22;4044;49.814;7.828;2023-03-14T01:16:16;9.90;99.90
7998;DHT22;4044;49.814;7.828;2023-03-14T01:18:43;9.80;99.90
7998;DHT22;4044;49.814;7.828;2023-03-14T01:21:18;9.70;99.90
7998;DHT22;4044;49.814;7.828;2023-03-14T01:23:45;9.80;99.90
7998;DHT22;4044;49.814;7.828;2023-03-14T01:26:13;9.90;99.90
7998;DHT22;4044;49.814;7.828;2023-03-14T01:28:39;10.00;99.90
7998;DHT22;4044;49.814;7.828;2023-03-14T01:31:08;10.10;99.90
7998;DHT22;4044;49.814;7.828;2023-03-14T01:33:33;10.10;99.90
7998;DHT22;4044;49.814;7.828;2023-03-14T01:35:59;10.10;99.90
7998;DHT22;4044;49.814;7.828;2023-03-14T01:38:31;10.10;99.90
7998;DHT22;4044;49.814;7.828;2023-03-14T01:40:57;10.00;99.90
7998;DHT22;4044;49.814;7.828;2023-03-14T01:43:23;10.00;99.90
7998;DHT22;4044;49.814;7.828;2023-03-14T01:48:40;9.90;99.90
7998;DHT22;4044;49.814;7.828;2023-03-14T01:51:11;9.90;99.90
7998;DHT22;4044;49.814;7.828;2023-03-14T01:53:39;10.00;99.90
7998;DHT22;4044;49.814;7.828;2023-03-14T01:56:06;10.00;99.90
7998;DHT22;4044;49.814;7.828;2023-03-14T01:58:32;10.00;99.90
7998;DHT22;4044;49.814;7.828;2023-03-14T02:01:00;10.10;99.90
7998;DHT22;4044;49.814;7.828;2023-03-14T02:03:27;9.90;99.90
7998;DHT22;4044;49.814;7.828;2023-03-14T02:05:57;9.90;99.90
7998;DHT22;4044;49.814;7.828;2023-03-14T02:08:26;9.90;99.90
7998;DHT22;4044;49.814;7.828;2023-03-14T02:10:52;9.90;99.90
7998;DHT22;4044;49.814;7.828;2023-03-14T02:13:19;9.80;99.90
7998;DHT22;4044;49.814;7.828;2023-03-14T02:15:45;9.80;99.90
7998;DHT22;4044;49.814;7.828;2023-03-14T02:18:12;9.80;99.90
7998;DHT22;4044;49.814;7.828;2023-03-14T02:21:01;9.80;99.90
7998;DHT22;4044;49.814;7.828;2023-03-14T02:26:23;9.80;99.90
7998;DHT22;4044;49.814;7.828;2023-03-14T02:28:52;9.90;99.90
7998;DHT22;4044;49.814;7.828;2023-03-14T02:31:19;9.80;99.90
7998;DHT22;4044;49.814;7.828;2023-03-14T02:33:46;9.70;99.90
7998;DHT22;4044;49.814;7.828;2023-03-14T02:36:13;9.60;99.90
7998;DHT22;4044;49.814;7.828;2023-03-14T02:41:10;9.60;99.90
7998;DHT22;4044;49.814;7.828;2023-03-14T02:43:36;9.60;99.90
7998;DHT22;4044;49.814;7.828;2023-03-14T02:46:03;9.60;99.90
7998;DHT22;4044;49.814;7.828;2023-03-14T02:48:54;9.60;99.90
7998;DHT22;4044;49.814;7.828;2023-03-14T02:51:18;9.60;99.90
7998;DHT22;4044;49.814;7.828;2023-03-14T02:53:44;9.70;99.90
7998;DHT22;4044;49.814;7.828;2023-03-14T02:56:10;9.80;99.90
7998;DHT22;4044;49.814;7.828;2023-03-14T02:58:37;9.80;99.90
7998;DHT22;4044;49.814;7.828;2023-03-14T03:01:03;9.70;99.90
7998;DHT22;4044;49.814;7.828;2023-03-14T03:03:29;9.60;99.90
7998;DHT22;4044;49.814;7.828;2023-03-14T03:05:56;9.50;99.90
7998;DHT22;4044;49.814;7.828;2023-03-14T03:08:23;9.50;99.90
7998;DHT22;4044;49.814;7.828;2023-03-14T03:10:50;9.30;99.90
7998;DHT22;4044;49.814;7.828;2023-03-14T03:13:16;9.30;99.90
7998;DHT22;4044;49.814;7.828;2023-03-14T03:15:42;9.30;99.90
7998;DHT22;4044;49.814;7.828;2023-03-14T03:18:08;9.30;99.90
7998;DHT22;4044;49.814;7.828;2023-03-14T03:20:34;9.30;99.90
7998;DHT22;4044;49.814;7.828;2023-03-14T03:23:00;9.40;99.90
7998;DHT22;4044;49.814;7.828;2023-03-14T03:25:25;9.40;99.90
7998;DHT22;4044;49.814;7.828;2023-03-14T03:27:51;9.30;99.90
7998;DHT22;4044;49.814;7.828;2023-03-14T03:30:17;9.30;99.90
7998;DHT22;4044;49.814;7.828;2023-03-14T03:32:43;9.30;99.90
7998;DHT22;4044;49.814;7.828;2023-03-14T03:35:09;9.30;99.90
7998;DHT22;4044;49.814;7.828;2023-03-14T03:37:34;9.30;99.90
7998;DHT22;4044;49.814;7.828;2023-03-14T03:40:00;9.40;99.90
7998;DHT22;4044;49.814;7.828;2023-03-14T03:42:27;9.40;99.90
7998;DHT22;4044;49.814;7.828;2023-03-14T03:44:52;9.40;99.90
7998;DHT22;4044;49.814;7.828;2023-03-14T03:47:18;9.40;99.90
7998;DHT22;4044;49.814;7.828;2023-03-14T03:49:43;9.30;99.90
7998;DHT22;4044;49.814;7.828;2023-03-14T03:52:09;9.30;99.90
7998;DHT22;4044;49.814;7.828;2023-03-14T03:54:35;9.30;99.90
7998;DHT22;4044;49.814;7.828;2023-03-14T03:57:01;9.20;99.90
7998;DHT22;4044;49.814;7.828;2023-03-14T03:59:26;9.20;99.90
7998;DHT22;4044;49.814;7.828;2023-03-14T04:01:52;9.10;99.90
7998;DHT22;4044;49.814;7.828;2023-03-14T04:04:17;9.10;99.90
7998;DHT22;4044;49.814;7.828;2023-03-14T04:06:43;9.00;99.90
7998;DHT22;4044;49.814;7.828;2023-03-14T04:09:10;9.00;99.90
7998;DHT22;4044;49.814;7.828;2023-03-14T04:11:35;9.00;99.90
7998;DHT22;4044;49.814;7.828;2023-03-14T04:14:01;9.00;99.90
7998;DHT22;4044;49.814;7.828;2023-03-14T04:16:26;8.90;99.90
7998;DHT22;4044;49.814;7.828;2023-03-14T04:18:52;8.90;99.90
7998;DHT22;4044;49.814;7.828;2023-03-14T04:21:18;8.90;99.90
7998;DHT22;4044;49.814;7.828;2023-03-14T04:23:44;8.80;99.90
7998;DHT22;4044;49.814;7.828;2023-03-14T04:26:09;8.80;99.90
7998;DHT22;4044;49.814;7.828;2023-03-14T04:28:35;8.80;99.90
7998;DHT22;4044;49.814;7.828;2023-03-14T04:31:13;8.80;99.90
7998;DHT22;4044;49.814;7.828;2023-03-14T04:33:39;8.80;99.90
7998;DHT22;4044;49.814;7.828;2023-03-14T04:36:06;8.80;99.90
7998;DHT22;4044;49.814;7.828;2023-03-14T04:38:32;8.80;99.90
7998;DHT22;4044;49.814;7.828;2023-03-14T04:40:59;8.80;99.90
7998;DHT22;4044;49.814;7.828;2023-03-14T04:43:25;8.80;99.90
7998;DHT22;4044;49.814;7.828;2023-03-14T04:45:52;8.70;99.90
7998;DHT22;4044;49.814;7.828;2023-03-14T04:48:18;8.70;99.90
7998;DHT22;4044;49.814;7.828;2023-03-14T04:50:44;8.70;99.90
7998;DHT22;4044;49.814;7.828;2023-03-14T04:53:11;8.70;99.90
7998;DHT22;4044;49.814;7.828;2023-03-14T04:55:37;8.60;99.90
7998;DHT22;4044;49.814;7.828;2023-03-14T04:58:02;8.60;99.90
7998;DHT22;4044;49.814;7.828;2023-03-14T05:00:28;8.60;99.90
7998;DHT22;4044;49.814;7.828;2023-03-14T05:02:53;8.60;99.90
7998;DHT22;4044;49.814;7.828;2023-03-14T05:05:19;8.60;99.90
7998;DHT22;4044;49.814;7.828;2023-03-14T05:07:45;8.60;99.90
7998;DHT22;4044;49.814;7.828;2023-03-14T05:10:10;8.60;99.90
7998;DHT22;4044;49.814;7.828;2023-03-14T05:12:36;8.50;99.90
7998;DHT22;4044;49.814;7.828;2023-03-14T05:15:01;8.50;99.90
7998;DHT22;4044;49.814;7.828;2023-03-14T05:17:27;8.50;99.90
7998;DHT22;4044;49.814;7.828;2023-03-14T05:19:52;8.60;99.90
7998;DHT22;4044;49.814;7.828;2023-03-14T05:22:18;8.50;99.90
7998;DHT22;4044;49.814;7.828;2023-03-14T05:24:43;8.60;99.90
7998;DHT22;4044;49.814;7.828;2023-03-14T05:27:09;8.60;99.90
7998;DHT22;4044;49.814;7.828;2023-03-14T05:29:34;8.70;99.90
7998;DHT22;4044;49.814;7.828;2023-03-14T05:32:00;8.80;99.90
7998;DHT22;4044;49.814;7.828;2023-03-14T05:34:26;8.80;99.90
7998;DHT22;4044;49.814;7.828;2023-03-14T05:36:51;8.80;99.90
7998;DHT22;4044;49.814;7.828;2023-03-14T05:39:17;8.80;99.90
7998;DHT22;4044;49.814;7.828;2023-03-14T05:41:42;8.70;99.90
7998;DHT22;4044;49.814;7.828;2023-03-14T05:44:08;8.70;99.90
7998;DHT22;4044;49.814;7.828;2023-03-14T05:46:33;8.70;99.90
7998;DHT22;4044;49.814;7.828;2023-03-14T05:48:59;8.70;99.90
7998;DHT22;4044;49.814;7.828;2023-03-14T05:51:25;8.70;99.90
7998;DHT22;4044;49.814;7.828;2023-03-14T05:53:51;8.80;99.90
7998;DHT22;4044;49.814;7.828;2023-03-14T05:56:16;8.80;99.90
7998;DHT22;4044;49.814;7.828;2023-03-14T05:58:42;8.90;99.90
7998;DHT22;4044;49.814;7.828;2023-03-14T06:01:08;9.00;99.90
7998;DHT22;4044;49.814;7.828;2023-03-14T06:03:33;9.10;99.90
7998;DHT22;4044;49.814;7.828;2023-03-14T06:05:59;9.20;99.90
7998;DHT22;4044;49.814;7.828;2023-03-14T06:08:25;9.30;99.90
7998;DHT22;4044;49.814;7.828;2023-03-14T06:10:51;9.40;99.90
7998;DHT22;4044;49.814;7.828;2023-03-14T06:13:17;9.50;99.90
7998;DHT22;4044;49.814;7.828;2023-03-14T06:15:43;9.50;99.90
7998;DHT22;4044;49.814;7.828;2023-03-14T06:18:08;9.50;99.90
7998;DHT22;4044;49.814;7.828;2023-03-14T06:20:36;9.50;99.90
7998;DHT22;4044;49.814;7.828;2023-03-14T06:23:05;9.50;99.90
7998;DHT22;4044;49.814;7.828;2023-03-14T06:25:31;9.50;99.90
7998;DHT22;4044;49.814;7.828;2023-03-14T06:27:57;9.50;99.90
7998;DHT22;4044;49.814;7.828;2023-03-14T06:30:22;9.50;99.90
7998;DHT22;4044;49.814;7.828;2023-03-14T06:32:48;9.50;99.90
7998;DHT22;4044;49.814;7.828;2023-03-14T06:35:13;9.50;99.90
7998;DHT22;4044;49.814;7.828;2023-03-14T06:37:39;9.70;99.90
7998;DHT22;4044;49.814;7.828;2023-03-14T06:40:05;9.70;99.90
7998;DHT22;4044;49.814;7.828;2023-03-14T06:42:32;9.80;99.90
7998;DHT22;4044;49.814;7.828;2023-03-14T06:44:58;9.90;99.90
7998;DHT22;4044;49.814;7.828;2023-03-14T06:47:23;9.90;99.90
7998;DHT22;4044;49.814;7.828;2023-03-14T06:49:49;9.90;99.90
7998;DHT22;4044;49.814;7.828;2023-03-14T06:52:14;9.80;99.90
7998;DHT22;4044;49.814;7.828;2023-03-14T06:54:40;9.90;99.90
7998;DHT22;4044;49.814;7.828;2023-03-14T06:57:05;9.80;99.90
7998;DHT22;4044;49.814;7.828;2023-03-14T06:59:31;10.00;99.90
7998;DHT22;4044;49.814;7.828;2023-03-14T07:01:56;10.00;99.90
7998;DHT22;4044;49.814;7.828;2023-03-14T07:04:22;10.00;99.90
7998;DHT22;4044;49.814;7.828;2023-03-14T07:06:47;10.10;99.90
7998;DHT22;4044;49.814;7.828;2023-03-14T07:09:14;10.00;99.90
7998;DHT22;4044;49.814;7.828;2023-03-14T07:11:40;10.00;99.90
7998;DHT22;4044;49.814;7.828;2023-03-14T07:14:05;10.00;99.90
7998;DHT22;4044;49.814;7.828;2023-03-14T07:16:31;10.10;99.90
7998;DHT22;4044;49.814;7.828;2023-03-14T07:18:59;10.10;99.90
7998;DHT22;4044;49.814;7.828;2023-03-14T07:21:24;10.20;99.90
7998;DHT22;4044;49.814;7.828;2023-03-14T07:23:50;10.30;99.90
7998;DHT22;4044;49.814;7.828;2023-03-14T07:26:15;10.20;99.90
7998;DHT22;4044;49.814;7.828;2023-03-14T07:28:41;10.20;99.90
7998;DHT22;4044;49.814;7.828;2023-03-14T07:31:07;10.20;99.90
7998;DHT22;4044;49.814;7.828;2023-03-14T07:33:33;10.30;99.90
7998;DHT22;4044;49.814;7.828;2023-03-14T07:35:59;10.60;99.90
7998;DHT22;4044;49.814;7.828;2023-03-14T07:38:24;10.60;99.90
7998;DHT22;4044;49.814;7.828;2023-03-14T07:40:50;10.80;99.90
7998;DHT22;4044;49.814;7.828;2023-03-14T07:43:15;10.60;99.90
7998;DHT22;4044;49.814;7.828;2023-03-14T07:45:44;10.70;99.90
7998;DHT22;4044;49.814;7.828;2023-03-14T07:48:10;10.80;99.90
7998;DHT22;4044;49.814;7.828;2023-03-14T07:50:36;10.90;99.90
7998;DHT22;4044;49.814;7.828;2023-03-14T07:53:01;10.70;99.90
7998;DHT22;4044;49.814;7.828;2023-03-14T07:55:27;10.80;99.90
7998;DHT22;4044;49.814;7.828;2023-03-14T07:57:52;10.70;99.90
7998;DHT22;4044;49.814;7.828;2023-03-14T08:00:18;10.50;99.90
7998;DHT22;4044;49.814;7.828;2023-03-14T08:02:44;10.60;99.90
7998;DHT22;4044;49.814;7.828;2023-03-14T08:05:09;10.60;99.90
7998;DHT22;4044;49.814;7.828;2023-03-14T08:07:35;10.90;99.90
7998;DHT22;4044;49.814;7.828;2023-03-14T08:10:02;11.00;99.90
7998;DHT22;4044;49.814;7.828;2023-03-14T08:12:27;11.10;99.90
7998;DHT22;4044;49.814;7.828;2023-03-14T08:14:53;11.20;99.90
7998;DHT22;4044;49.814;7.828;2023-03-14T08:17:18;11.30;99.90
7998;DHT22;4044;49.814;7.828;2023-03-14T08:19:44;11.40;99.90
7998;DHT22;4044;49.814;7.828;2023-03-14T08:22:09;11.50;99.90
7998;DHT22;4044;49.814;7.828;2023-03-14T08:24:35;11.50;99.90
7998;DHT22;4044;49.814;7.828;2023-03-14T08:27:00;11.60;99.90
7998;DHT22;4044;49.814;7.828;2023-03-14T08:29:26;11.70;99.90
7998;DHT22;4044;49.814;7.828;2023-03-14T08:31:52;11.50;99.90
7998;DHT22;4044;49.814;7.828;2023-03-14T08:34:17;11.60;99.90
7998;DHT22;4044;49.814;7.828;2023-03-14T08:36:43;11.40;99.90
7998;DHT22;4044;49.814;7.828;2023-03-14T08:39:08;11.40;99.90
7998;DHT22;4044;49.814;7.828;2023-03-14T08:41:35;11.50;99.90
7998;DHT22;4044;49.814;7.828;2023-03-14T08:44:06;11.70;99.90
7998;DHT22;4044;49.814;7.828;2023-03-14T08:46:32;11.60;99.90
7998;DHT22;4044;49.814;7.828;2023-03-14T08:48:57;11.80;99.90
7998;DHT22;4044;49.814;7.828;2023-03-14T08:51:23;12.00;99.90
7998;DHT22;4044;49.814;7.828;2023-03-14T08:53:48;11.90;99.90
7998;DHT22;4044;49.814;7.828;2023-03-14T08:56:14;11.90;99.90
7998;DHT22;4044;49.814;7.828;2023-03-14T08:58:39;11.90;99.90
7998;DHT22;4044;49.814;7.828;2023-03-14T09:01:08;12.10;99.90
7998;DHT22;4044;49.814;7.828;2023-03-14T09:03:34;12.30;99.90
7998;DHT22;4044;49.814;7.828;2023-03-14T09:06:04;12.40;99.90
7998;DHT22;4044;49.814;7.828;2023-03-14T09:08:31;12.40;99.90
7998;DHT22;4044;49.814;7.828;2023-03-14T09:10:56;12.40;99.90
7998;DHT22;4044;49.814;7.828;2023-03-14T09:13:22;12.40;99.90
7998;DHT22;4044;49.814;7.828;2023-03-14T09:15:56;12.50;99.90
7998;DHT22;4044;49.814;7.828;2023-03-14T09:18:21;12.70;99.90
7998;DHT22;4044;49.814;7.828;2023-03-14T09:20:48;12.80;99.90
7998;DHT22;4044;49.814;7.828;2023-03-14T09:23:14;12.90;99.90
7998;DHT22;4044;49.814;7.828;2023-03-14T09:25:39;13.20;99.90
7998;DHT22;4044;49.814;7.828;2023-03-14T09:28:05;13.30;99.90
7998;DHT22;4044;49.814;7.828;2023-03-14T09:30:31;13.40;99.90
7998;DHT22;4044;49.814;7.828;2023-03-14T09:32:56;13.40;99.90
7998;DHT22;4044;49.814;7.828;2023-03-14T09:35:23;13.50;99.90
7998;DHT22;4044;49.814;7.828;2023-03-14T09:37:48;13.50;99.90
7998;DHT22;4044;49.814;7.828;2023-03-14T09:40:16;13.40;99.90
7998;DHT22;4044;49.814;7.828;2023-03-14T09:42:42;13.30;99.90
7998;DHT22;4044;49.814;7.828;2023-03-14T09:45:25;13.20;99.90
7998;DHT22;4044;49.814;7.828;2023-03-14T09:47:53;13.20;99.90
7998;DHT22;4044;49.814;7.828;2023-03-14T09:50:19;13.20;99.90
7998;DHT22;4044;49.814;7.828;2023-03-14T09:53:01;13.10;99.90
7998;DHT22;4044;49.814;7.828;2023-03-14T09:55:27;13.20;99.90
7998;DHT22;4044;49.814;7.828;2023-03-14T09:58:03;13.10;99.90
7998;DHT22;4044;49.814;7.828;2023-03-14T10:00:31;12.80;99.90
7998;DHT22;4044;49.814;7.828;2023-03-14T10:05:40;12.40;99.90
7998;DHT22;4044;49.814;7.828;2023-03-14T10:08:10;12.40;99.90
7998;DHT22;4044;49.814;7.828;2023-03-14T10:10:36;12.40;99.90
7998;DHT22;4044;49.814;7.828;2023-03-14T10:15:40;12.60;99.90
7998;DHT22;4044;49.814;7.828;2023-03-14T10:18:11;12.60;99.90
7998;DHT22;4044;49.814;7.828;2023-03-14T10:20:38;12.80;99.90
7998;DHT22;4044;49.814;7.828;2023-03-14T10:23:27;13.10;99.90
7998;DHT22;4044;49.814;7.828;2023-03-14T10:26:11;13.10;99.90
7998;DHT22;4044;49.814;7.828;2023-03-14T10:28:40;13.20;99.90
7998;DHT22;4044;49.814;7.828;2023-03-14T10:31:07;13.30;99.90
7998;DHT22;4044;49.814;7.828;2023-03-14T10:33:35;13.20;99.90
7998;DHT22;4044;49.814;7.828;2023-03-14T10:36:03;12.90;99.90
7998;DHT22;4044;49.814;7.828;2023-03-14T10:38:31;12.80;99.90
7998;DHT22;4044;49.814;7.828;2023-03-14T10:40:57;12.80;99.90
7998;DHT22;4044;49.814;7.828;2023-03-14T10:43:31;12.90;99.90
7998;DHT22;4044;49.814;7.828;2023-03-14T10:46:01;13.10;99.90
7998;DHT22;4044;49.814;7.828;2023-03-14T10:48:33;13.50;99.90
7998;DHT22;4044;49.814;7.828;2023-03-14T10:53:45;14.20;99.90
7998;DHT22;4044;49.814;7.828;2023-03-14T10:56:12;14.30;99.90
7998;DHT22;4044;49.814;7.828;2023-03-14T10:58:46;14.50;99.90
7998;DHT22;4044;49.814;7.828;2023-03-14T11:10:32;14.40;99.90
7998;DHT22;4044;49.814;7.828;2023-03-14T11:16:08;12.80;99.90
7998;DHT22;4044;49.814;7.828;2023-03-14T11:19:03;12.50;99.90
7998;DHT22;4044;49.814;7.828;2023-03-14T11:21:39;11.60;99.90
7998;DHT22;4044;49.814;7.828;2023-03-14T11:26:42;10.60;99.90
7998;DHT22;4044;49.814;7.828;2023-03-14T11:29:22;10.60;99.90
7998;DHT22;4044;49.814;7.828;2023-03-14T11:31:55;10.70;99.90
7998;DHT22;4044;49.814;7.828;2023-03-14T11:34:36;10.60;99.90
7998;DHT22;4044;49.814;7.828;2023-03-14T11:37:21;10.50;99.90
7998;DHT22;4044;49.814;7.828;2023-03-14T11:40:02;10.20;99.90
7998;DHT22;4044;49.814;7.828;2023-03-14T11:42:32;10.00;99.90
7998;DHT22;4044;49.814;7.828;2023-03-14T11:44:58;10.00;99.90
7998;DHT22;4044;49.814;7.828;2023-03-14T11:47:38;10.00;99.90
7998;DHT22;4044;49.814;7.828;2023-03-14T11:50:21;10.20;99.90
7998;DHT22;4044;49.814;7.828;2023-03-14T11:52:54;10.80;99.90
7998;DHT22;4044;49.814;7.828;2023-03-14T11:55:48;11.00;99.90
7998;DHT22;4044;49.814;7.828;2023-03-14T11:58:26;11.00;99.90
7998;DHT22;4044;49.814;7.828;2023-03-14T12:00:54;11.00;99.90
7998;DHT22;4044;49.814;7.828;2023-03-14T12:06:20;11.60;99.90
7998;DHT22;4044;49.814;7.828;2023-03-14T12:08:50;11.90;99.90
7998;DHT22;4044;49.814;7.828;2023-03-14T12:14:20;11.70;99.90
7998;DHT22;4044;49.814;7.828;2023-03-14T12:16:47;11.50;99.90
7998;DHT22;4044;49.814;7.828;2023-03-14T12:19:24;11.30;99.90
7998;DHT22;4044;49.814;7.828;2023-03-14T12:21:51;11.20;99.90
7998;DHT22;4044;49.814;7.828;2023-03-14T12:24:26;11.10;99.90
7998;DHT22;4044;49.814;7.828;2023-03-14T12:26:55;11.00;99.90
7998;DHT22;4044;49.814;7.828;2023-03-14T12:29:21;10.80;99.90
7998;DHT22;4044;49.814;7.828;2023-03-14T12:31:48;10.50;99.90
7998;DHT22;4044;49.814;7.828;2023-03-14T12:45:21;12.40;99.90
7998;DHT22;4044;49.814;7.828;2023-03-14T12:50:33;12.80;99.90
7998;DHT22;4044;49.814;7.828;2023-03-14T12:53:07;13.10;99.90
7998;DHT22;4044;49.814;7.828;2023-03-14T12:55:57;13.60;99.90
7998;DHT22;4044;49.814;7.828;2023-03-14T12:58:50;13.40;99.90
7998;DHT22;4044;49.814;7.828;2023-03-14T13:01:20;13.10;99.90
7998;DHT22;4044;49.814;7.828;2023-03-14T13:03:57;13.30;99.90
7998;DHT22;4044;49.814;7.828;2023-03-14T13:06:51;12.80;99.90
7998;DHT22;4044;49.814;7.828;2023-03-14T13:12:10;13.30;99.90
7998;DHT22;4044;49.814;7.828;2023-03-14T13:14:41;13.50;99.90
7998;DHT22;4044;49.814;7.828;2023-03-14T13:17:18;13.20;99.90
7998;DHT22;4044;49.814;7.828;2023-03-14T13:19:51;13.60;99.90
7998;DHT22;4044;49.814;7.828;2023-03-14T13:22:24;13.20;99.90
7998;DHT22;4044;49.814;7.828;2023-03-14T13:24:57;13.30;99.90
7998;DHT22;4044;49.814;7.828;2023-03-14T13:27:23;12.80;99.90
7998;DHT22;4044;49.814;7.828;2023-03-14T13:29:50;12.40;99.90
7998;DHT22;4044;49.814;7.828;2023-03-14T13:32:21;12.20;99.90
7998;DHT22;4044;49.814;7.828;2023-03-14T13:34:47;12.00;99.90
7998;DHT22;4044;49.814;7.828;2023-03-14T13:37:22;11.90;99.90
7998;DHT22;4044;49.814;7.828;2023-03-14T13:39:56;12.20;99.90
7998;DHT22;4044;49.814;7.828;2023-03-14T13:42:27;12.20;99.90
7998;DHT22;4044;49.814;7.828;2023-03-14T13:44:55;12.90;99.90
7998;DHT22;4044;49.814;7.828;2023-03-14T13:47:25;13.10;99.30
7998;DHT22;4044;49.814;7.828;2023-03-14T13:49:52;12.90;99.90
7998;DHT22;4044;49.814;7.828;2023-03-14T13:52:29;12.90;98.60
7998;DHT22;4044;49.814;7.828;2023-03-14T13:54:56;13.50;99.90
7998;DHT22;4044;49.814;7.828;2023-03-14T13:57:22;12.60;97.60
7998;DHT22;4044;49.814;7.828;2023-03-14T13:59:59;11.50;98.50
7998;DHT22;4044;49.814;7.828;2023-03-14T14:02:27;10.80;99.10
7998;DHT22;4044;49.814;7.828;2023-03-14T14:04:53;10.60;99.10
7998;DHT22;4044;49.814;7.828;2023-03-14T14:07:18;10.20;99.50
7998;DHT22;4044;49.814;7.828;2023-03-14T14:09:51;10.30;99.90
7998;DHT22;4044;49.814;7.828;2023-03-14T14:12:29;11.10;99.90
7998;DHT22;4044;49.814;7.828;2023-03-14T14:15:17;11.70;99.90
7998;DHT22;4044;49.814;7.828;2023-03-14T14:17:51;12.30;99.90
7998;DHT22;4044;49.814;7.828;2023-03-14T14:23:01;12.20;98.00
7998;DHT22;4044;49.814;7.828;2023-03-14T14:25:29;12.20;98.20
7998;DHT22;4044;49.814;7.828;2023-03-14T14:27:55;12.00;97.90
7998;DHT22;4044;49.814;7.828;2023-03-14T14:32:48;13.20;96.90
7998;DHT22;4044;49.814;7.828;2023-03-14T14:35:30;13.20;96.60
7998;DHT22;4044;49.814;7.828;2023-03-14T14:37:56;13.20;96.80
7998;DHT22;4044;49.814;7.828;2023-03-14T14:40:24;12.80;95.90
7998;DHT22;4044;49.814;7.828;2023-03-14T14:42:51;12.60;96.80
7998;DHT22;4044;49.814;7.828;2023-03-14T14:45:22;12.30;95.50
7998;DHT22;4044;49.814;7.828;2023-03-14T14:47:54;12.00;95.40
7998;DHT22;4044;49.814;7.828;2023-03-14T14:50:39;11.80;95.90
7998;DHT22;4044;49.814;7.828;2023-03-14T14:55:55;11.20;94.40
7998;DHT22;4044;49.814;7.828;2023-03-14T14:58:29;10.90;94.70
7998;DHT22;4044;49.814;7.828;2023-03-14T15:01:11;10.50;94.90
7998;DHT22;4044;49.814;7.828;2023-03-14T15:03:39;10.10;95.80
7998;DHT22;4044;49.814;7.828;2023-03-14T15:06:10;9.90;98.30
7998;DHT22;4044;49.814;7.828;2023-03-14T15:08:37;9.90;97.70
7998;DHT22;4044;49.814;7.828;2023-03-14T15:11:03;10.00;97.20
7998;DHT22;4044;49.814;7.828;2023-03-14T15:13:28;10.00;96.30
7998;DHT22;4044;49.814;7.828;2023-03-14T15:15:54;10.20;96.80
7998;DHT22;4044;49.814;7.828;2023-03-14T15:18:24;10.30;97.00
7998;DHT22;4044;49.814;7.828;2023-03-14T15:20:50;10.40;96.20
7998;DHT22;4044;49.814;7.828;2023-03-14T15:23:18;10.50;95.60
7998;DHT22;4044;49.814;7.828;2023-03-14T15:25:44;10.40;95.50
7998;DHT22;4044;49.814;7.828;2023-03-14T15:28:20;10.60;96.60
7998;DHT22;4044;49.814;7.828;2023-03-14T15:30:51;10.50;95.20
7998;DHT22;4044;49.814;7.828;2023-03-14T15:33:17;10.50;96.10
7998;DHT22;4044;49.814;7.828;2023-03-14T15:35:43;10.50;95.60
7998;DHT22;4044;49.814;7.828;2023-03-14T15:38:10;10.50;95.00
7998;DHT22;4044;49.814;7.828;2023-03-14T15:40:36;10.60;95.80
7998;DHT22;4044;49.814;7.828;2023-03-14T15:43:02;10.60;95.30
7998;DHT22;4044;49.814;7.828;2023-03-14T15:45:27;10.50;95.20
7998;DHT22;4044;49.814;7.828;2023-03-14T15:47:53;10.60;94.70
7998;DHT22;4044;49.814;7.828;2023-03-14T15:50:18;10.60;94.70
7998;DHT22;4044;49.814;7.828;2023-03-14T15:52:44;10.60;95.00
7998;DHT22;4044;49.814;7.828;2023-03-14T15:55:10;10.50;94.50
7998;DHT22;4044;49.814;7.828;2023-03-14T15:57:36;10.70;95.40
7998;DHT22;4044;49.814;7.828;2023-03-14T16:00:03;10.70;95.10
7998;DHT22;4044;49.814;7.828;2023-03-14T16:02:29;10.70;95.30
7998;DHT22;4044;49.814;7.828;2023-03-14T16:04:55;10.80;95.70
7998;DHT22;4044;49.814;7.828;2023-03-14T16:07:21;10.80;95.70
7998;DHT22;4044;49.814;7.828;2023-03-14T16:09:47;10.80;94.70
7998;DHT22;4044;49.814;7.828;2023-03-14T16:12:12;10.70;95.20
7998;DHT22;4044;49.814;7.828;2023-03-14T16:14:38;10.80;95.30
7998;DHT22;4044;49.814;7.828;2023-03-14T16:17:08;10.80;95.30
7998;DHT22;4044;49.814;7.828;2023-03-14T16:19:36;11.30;95.20
7998;DHT22;4044;49.814;7.828;2023-03-14T16:22:01;11.90;94.00
7998;DHT22;4044;49.814;7.828;2023-03-14T16:24:27;12.40;93.80
7998;DHT22;4044;49.814;7.828;2023-03-14T16:26:53;12.90;94.00
7998;DHT22;4044;49.814;7.828;2023-03-14T16:29:18;13.10;93.40
7998;DHT22;4044;49.814;7.828;2023-03-14T16:31:44;13.10;92.50
7998;DHT22;4044;49.814;7.828;2023-03-14T16:34:09;12.80;93.20
7998;DHT22;4044;49.814;7.828;2023-03-14T16:36:35;12.60;93.00
7998;DHT22;4044;49.814;7.828;2023-03-14T16:39:00;12.30;94.20
7998;DHT22;4044;49.814;7.828;2023-03-14T16:41:26;11.80;94.20
7998;DHT22;4044;49.814;7.828;2023-03-14T16:43:57;11.20;95.20
7998;DHT22;4044;49.814;7.828;2023-03-14T16:46:22;10.60;95.50
7998;DHT22;4044;49.814;7.828;2023-03-14T16:48:50;10.10;96.60
7998;DHT22;4044;49.814;7.828;2023-03-14T16:51:16;9.80;97.30
7998;DHT22;4044;49.814;7.828;2023-03-14T16:53:42;9.40;98.20
7998;DHT22;4044;49.814;7.828;2023-03-14T16:56:07;9.00;98.70
7998;DHT22;4044;49.814;7.828;2023-03-14T16:58:34;8.90;99.70
7998;DHT22;4044;49.814;7.828;2023-03-14T17:00:59;8.70;99.70
7998;DHT22;4044;49.814;7.828;2023-03-14T17:03:40;8.50;99.90
7998;DHT22;4044;49.814;7.828;2023-03-14T17:06:07;8.20;99.90
7998;DHT22;4044;49.814;7.828;2023-03-14T17:08:34;8.00;99.90
7998;DHT22;4044;49.814;7.828;2023-03-14T17:11:00;7.80;99.90
7998;DHT22;4044;49.814;7.828;2023-03-14T17:13:26;7.50;99.90